Time;durP1;ratioP1;P1;durP2;ratioP2;P2;SDS_P1;SDS_P2;PMS_P1;PMS_P2;Temp;Humidity;BMP_temperature;BMP_pressure;BME280_temperature;BME280_humidity;BME280_pressure;Samples;Min_cycle;Max_cycle;Signal;HPM_P1;HPM_P2
2022/08/25 00:01:30;;;;;;;1119.00;999.90;;;26.00;92.40;;;;;;5049283;28;20806;-77
2022/08/25 00:03:59;;;;;;;1137.87;999.90;;;26.00;92.60;;;;;;5053349;28;20940;-79
2022/08/25 00:06:26;;;;;;;1122.53;999.90;;;26.00;92.70;;;;;;5045138;28;20465;-77
2022/08/25 00:08:58;;;;;;;1119.37;999.90;;;26.00;92.60;;;;;;5048754;28;20454;-77
2022/08/25 00:11:26;;;;;;;1119.27;999.90;;;25.90;92.50;;;;;;5051410;28;20409;-78
2022/08/25 00:13:57;;;;;;;1124.27;999.90;;;25.90;92.70;;;;;;5045742;28;20439;-77
2022/08/25 00:16:25;;;;;;;1114.90;999.90;;;25.90;92.70;;;;;;5042402;28;20499;-78
2022/08/25 00:18:54;;;;;;;1114.00;999.90;;;25.90;92.80;;;;;;5052905;28;21094;-78
2022/08/25 00:21:23;;;;;;;1131.63;999.90;;;25.90;92.80;;;;;;5043969;28;20453;-77
2022/08/25 00:23:50;;;;;;;1124.30;999.90;;;25.90;92.80;;;;;;5045060;28;20457;-78
2022/08/25 00:26:17;;;;;;;1114.93;999.90;;;25.90;92.90;;;;;;5049720;28;20426;-78
2022/08/25 00:28:44;;;;;;;1118.97;999.90;;;25.80;92.80;;;;;;5050424;28;20798;-79
2022/08/25 00:31:13;;;;;;;1116.97;999.90;;;25.80;92.90;;;;;;5043168;28;20454;-79
2022/08/25 00:33:40;;;;;;;1110.67;999.90;;;25.80;92.90;;;;;;5052641;28;20449;-78
2022/08/25 00:36:08;;;;;;;1123.47;999.90;;;25.80;92.90;;;;;;5046642;28;20447;-78
2022/08/25 00:38:37;;;;;;;1114.37;999.90;;;25.80;92.90;;;;;;5048425;28;20454;-78
2022/08/25 00:41:06;;;;;;;1108.40;999.90;;;25.80;93.00;;;;;;5047500;28;20493;-78
2022/08/25 00:43:36;;;;;;;1112.37;999.90;;;25.70;93.00;;;;;;5050794;28;20454;-77
2022/08/25 00:46:03;;;;;;;1110.00;999.90;;;25.70;93.00;;;;;;5034406;28;20494;-77
2022/08/25 00:48:30;;;;;;;1111.40;999.90;;;25.70;93.00;;;;;;5044189;28;20822;-78
2022/08/25 00:50:57;;;;;;;1109.30;999.90;;;25.70;93.10;;;;;;5047411;28;21035;-77
2022/08/25 00:53:24;;;;;;;1124.37;999.90;;;25.70;93.10;;;;;;5043335;28;20466;-77
2022/08/25 00:55:52;;;;;;;1112.70;999.90;;;25.70;93.10;;;;;;5047546;28;20464;-77
2022/08/25 00:58:23;;;;;;;1115.07;999.90;;;25.70;93.10;;;;;;5047412;28;20464;-77
2022/08/25 01:00:54;;;;;;;1111.00;999.90;;;25.70;93.20;;;;;;5045330;28;20639;-78
2022/08/25 01:03:22;;;;;;;1125.03;999.90;;;25.60;93.20;;;;;;5044481;28;20495;-77
2022/08/25 01:05:49;;;;;;;1109.40;999.90;;;25.60;93.20;;;;;;5044100;28;20433;-78
2022/08/25 01:08:20;;;;;;;1116.47;999.90;;;25.60;93.30;;;;;;5043043;28;20436;-78
2022/08/25 01:10:47;;;;;;;1120.20;999.90;;;25.60;93.30;;;;;;5042578;28;20515;-78
2022/08/25 01:13:20;;;;;;;1110.77;999.90;;;25.60;93.40;;;;;;5038827;28;21202;-78
2022/08/25 01:15:48;;;;;;;1104.50;999.90;;;25.50;93.40;;;;;;5045957;28;20469;-77
2022/08/25 01:18:16;;;;;;;1111.87;999.90;;;25.50;93.40;;;;;;5045473;28;20960;-77
2022/08/25 01:20:43;;;;;;;1117.43;999.90;;;25.50;93.50;;;;;;5041088;28;20994;-78
2022/08/25 01:23:11;;;;;;;1117.30;999.90;;;25.50;93.80;;;;;;5050096;28;20791;-77
2022/08/25 01:25:48;;;;;;;1110.93;999.90;;;25.50;93.50;;;;;;5044211;28;20457;-77
2022/08/25 01:28:15;;;;;;;1108.13;999.90;;;25.50;93.50;;;;;;5045928;28;20855;-78
2022/08/25 01:30:42;;;;;;;1100.43;999.90;;;25.50;93.60;;;;;;5040789;28;20428;-78
2022/08/25 01:33:11;;;;;;;1114.43;999.90;;;25.40;93.50;;;;;;5043043;28;20464;-77
2022/08/25 01:35:39;;;;;;;1101.70;999.90;;;25.40;93.60;;;;;;5044475;28;20461;-77
2022/08/25 01:38:07;;;;;;;1101.87;999.90;;;25.40;93.60;;;;;;5049487;28;20457;-78
2022/08/25 01:40:36;;;;;;;1101.83;999.90;;;25.40;93.60;;;;;;5040238;28;20460;-77
2022/08/25 01:43:12;;;;;;;1101.50;999.90;;;25.40;93.70;;;;;;5042184;28;20447;-78
2022/08/25 01:45:42;;;;;;;1106.17;999.90;;;25.40;93.70;;;;;;5037810;28;20451;-77
2022/08/25 01:48:10;;;;;;;1091.67;997.57;;;25.30;93.70;;;;;;5050046;28;20841;-77
2022/08/25 01:50:38;;;;;;;1112.00;999.90;;;25.30;93.70;;;;;;5044281;28;20457;-77
2022/08/25 01:53:08;;;;;;;1110.90;999.90;;;25.30;93.80;;;;;;5043004;28;20453;-77
2022/08/25 01:55:51;;;;;;;1110.93;999.90;;;25.30;93.80;;;;;;5046394;28;20440;-77
2022/08/25 01:58:19;;;;;;;1112.03;999.90;;;25.30;93.90;;;;;;5045721;28;20422;-76
2022/08/25 02:00:46;;;;;;;1094.00;998.43;;;25.30;93.90;;;;;;5038225;28;20459;-77
2022/08/25 02:03:13;;;;;;;1092.40;997.90;;;25.30;93.90;;;;;;5046127;28;20464;-78
2022/08/25 02:05:40;;;;;;;1098.57;999.90;;;25.20;93.90;;;;;;5047300;28;20809;-78
2022/08/25 02:08:07;;;;;;;1107.03;999.90;;;25.20;94.00;;;;;;5043806;28;20981;-77
2022/08/25 02:10:34;;;;;;;1099.80;999.90;;;25.20;94.00;;;;;;5039907;28;20449;-77
2022/08/25 02:13:02;;;;;;;1103.70;999.90;;;25.20;94.10;;;;;;5050219;28;20431;-78
2022/08/25 02:15:29;;;;;;;1103.20;999.90;;;25.10;94.10;;;;;;5041250;28;20206;-77
2022/08/25 02:17:57;;;;;;;1103.47;999.90;;;25.10;94.20;;;;;;5045816;28;20462;-78
2022/08/25 02:20:24;;;;;;;1103.13;999.90;;;25.10;94.20;;;;;;5039705;28;20485;-77
2022/08/25 02:22:51;;;;;;;1094.30;998.57;;;25.10;94.30;;;;;;5043538;28;20207;-77
2022/08/25 02:25:18;;;;;;;1112.85;999.90;;;25.10;94.30;;;;;;5044842;28;20800;-77
2022/08/25 02:27:46;;;;;;;1111.67;999.90;;;25.10;94.40;;;;;;5047963;28;20191;-78
2022/08/25 02:30:15;;;;;;;1086.33;994.43;;;25.10;94.40;;;;;;5048987;28;20453;-78
2022/08/25 02:32:43;;;;;;;1109.43;999.90;;;25.00;94.40;;;;;;5054985;28;20936;-77
2022/08/25 02:35:10;;;;;;;1091.07;996.80;;;25.00;94.50;;;;;;5045671;28;20248;-77
2022/08/25 02:37:37;;;;;;;1105.20;999.90;;;25.00;94.50;;;;;;5049231;28;20511;-78
2022/08/25 02:40:05;;;;;;;1085.53;993.87;;;25.00;94.50;;;;;;5047685;28;20211;-77
2022/08/25 02:42:32;;;;;;;1096.65;998.65;;;25.00;94.60;;;;;;5047885;28;20465;-77
2022/08/25 02:44:58;;;;;;;1094.40;998.67;;;25.00;94.60;;;;;;5045964;28;20194;-79
2022/08/25 02:47:27;;;;;;;1087.60;995.40;;;25.00;94.60;;;;;;5046185;28;20952;-80
2022/08/25 02:49:54;;;;;;;1101.93;999.90;;;25.00;94.70;;;;;;5033826;28;20548;-80
2022/08/25 02:52:21;;;;;;;1101.17;999.90;;;24.90;94.70;;;;;;5039721;28;20480;-79
2022/08/25 02:54:47;;;;;;;1089.37;996.40;;;24.90;94.70;;;;;;5048078;28;20945;-79
2022/08/25 02:57:14;;;;;;;1095.13;998.93;;;24.90;94.80;;;;;;5050167;28;20457;-79
2022/08/25 02:59:41;;;;;;;1098.45;999.25;;;24.90;94.80;;;;;;5046734;28;20507;-79
2022/08/25 03:02:08;;;;;;;1095.20;997.53;;;24.90;94.90;;;;;;5046133;28;20203;-79
2022/08/25 03:04:36;;;;;;;1102.28;999.47;;;24.90;94.90;;;;;;5049835;28;20202;-79
2022/08/25 03:07:04;;;;;;;1086.33;994.47;;;24.80;94.90;;;;;;5046679;28;20207;-80
2022/08/25 03:09:31;;;;;;;1093.37;998.50;;;24.80;95.00;;;;;;5034511;28;20818;-79
2022/08/25 03:11:57;;;;;;;1089.40;995.67;;;24.80;95.00;;;;;;5041818;28;20452;-79
2022/08/25 03:14:24;;;;;;;1093.23;998.40;;;24.80;95.00;;;;;;5039036;28;20650;-79
2022/08/25 03:16:51;;;;;;;1089.13;995.65;;;24.80;95.10;;;;;;5043319;28;20971;-79
2022/08/25 03:19:17;;;;;;;1084.05;992.50;;;24.80;95.10;;;;;;5046968;28;20586;-79
2022/08/25 03:21:46;;;;;;;1102.53;999.90;;;24.70;95.10;;;;;;5045298;28;20218;-80
2022/08/25 03:24:12;;;;;;;1089.00;995.60;;;24.70;95.20;;;;;;5052939;28;20297;-80
2022/08/25 03:26:54;;;;;;;1096.30;998.90;;;24.70;95.20;;;;;;5051193;28;20199;-79
2022/08/25 03:29:22;;;;;;;1081.05;990.30;;;24.70;95.20;;;;;;5046791;28;20209;-80
2022/08/25 03:31:50;;;;;;;1091.88;996.00;;;24.70;95.30;;;;;;5046380;28;20202;-79
2022/08/25 03:34:18;;;;;;;1079.75;989.00;;;24.60;95.30;;;;;;5047619;28;20235;-80
2022/08/25 03:36:48;;;;;;;1098.95;999.58;;;24.60;95.40;;;;;;5040770;28;20192;-80
2022/08/25 03:39:16;;;;;;;1094.97;998.53;;;24.60;95.40;;;;;;5052894;28;20234;-80
2022/08/25 03:41:43;;;;;;;1084.10;992.58;;;24.60;95.50;;;;;;5048904;28;20215;-80
2022/08/25 03:44:10;;;;;;;1083.60;992.20;;;24.60;95.50;;;;;;5042639;28;20676;-80
2022/08/25 03:46:41;;;;;;;1073.72;983.25;;;24.60;95.50;;;;;;5041703;28;20654;-80
2022/08/25 03:49:10;;;;;;;1079.82;989.22;;;24.60;95.60;;;;;;5043042;28;20230;-81
2022/08/25 03:51:41;;;;;;;1084.25;992.80;;;24.50;95.60;;;;;;5047725;28;20203;-81
2022/08/25 03:54:10;;;;;;;1087.45;995.00;;;24.50;95.70;;;;;;5051465;28;20289;-80
2022/08/25 03:56:37;;;;;;;1092.75;997.65;;;24.50;95.60;;;;;;5048598;28;20706;-81
2022/08/25 03:59:04;;;;;;;1077.32;986.70;;;24.50;95.60;;;;;;5045732;28;20205;-80
2022/08/25 04:01:31;;;;;;;1081.80;990.85;;;24.50;95.70;;;;;;5041631;28;20235;-79
2022/08/25 04:03:58;;;;;;;1078.28;987.75;;;24.50;95.70;;;;;;5050864;28;20221;-80
2022/08/25 04:06:25;;;;;;;1082.32;990.47;;;24.40;95.70;;;;;;5043748;28;20281;-81
2022/08/25 04:08:52;;;;;;;1076.35;985.72;;;24.40;95.70;;;;;;5050928;28;20192;-80
2022/08/25 04:11:22;;;;;;;1069.63;979.23;;;24.40;95.70;;;;;;5038773;28;20237;-80
2022/08/25 04:13:50;;;;;;;1082.68;991.67;;;24.40;95.70;;;;;;5049915;28;20967;-79
2022/08/25 04:16:19;;;;;;;1078.90;988.33;;;24.40;95.80;;;;;;5042145;28;20481;-81
2022/08/25 04:18:48;;;;;;;1092.88;997.97;;;24.30;95.70;;;;;;5044690;28;20208;-81
2022/08/25 04:21:15;;;;;;;1069.03;978.60;;;24.30;95.80;;;;;;5033979;28;20228;-79
2022/08/25 04:23:44;;;;;;;1075.97;985.38;;;24.30;95.80;;;;;;5043740;28;20210;-79
2022/08/25 04:26:13;;;;;;;1079.35;988.40;;;24.30;95.80;;;;;;5042696;28;20203;-81
2022/08/25 04:28:42;;;;;;;1072.07;981.67;;;24.30;95.90;;;;;;5045073;28;20697;-80
2022/08/25 04:31:10;;;;;;;1082.70;991.55;;;24.30;95.90;;;;;;5043037;28;20195;-80
2022/08/25 04:33:37;;;;;;;1075.90;985.40;;;24.30;95.90;;;;;;5045221;28;20195;-80
2022/08/25 04:36:05;;;;;;;1074.72;984.35;;;24.20;95.90;;;;;;5041680;28;20195;-80
2022/08/25 04:38:32;;;;;;;1058.45;968.58;;;24.20;95.90;;;;;;5045754;28;20202;-80
2022/08/25 04:41:01;;;;;;;1077.05;986.35;;;24.20;96.00;;;;;;5051485;28;20245;-80
2022/08/25 04:43:29;;;;;;;1069.45;979.22;;;24.20;96.00;;;;;;5045381;28;20219;-80
2022/08/25 04:45:57;;;;;;;1071.63;981.38;;;24.20;96.00;;;;;;5041682;28;20195;-81
2022/08/25 04:48:25;;;;;;;1074.50;984.08;;;24.20;96.10;;;;;;5046982;28;20285;-81
2022/08/25 04:50:51;;;;;;;1077.85;987.40;;;24.20;96.10;;;;;;5046247;28;20187;-81
2022/08/25 04:53:20;;;;;;;1064.18;974.05;;;24.10;96.00;;;;;;5052283;28;20199;-81
2022/08/25 04:55:48;;;;;;;1060.57;970.72;;;24.10;96.10;;;;;;5042398;28;20622;-79
2022/08/25 04:58:17;;;;;;;1064.13;973.88;;;24.10;96.10;;;;;;5042800;28;20195;-80
2022/08/25 05:00:45;;;;;;;1064.55;974.30;;;24.10;96.20;;;;;;5042939;28;20590;-79
2022/08/25 05:03:13;;;;;;;1067.88;977.60;;;24.10;96.20;;;;;;5052091;28;20377;-80
2022/08/25 05:05:40;;;;;;;1078.72;988.10;;;24.10;96.20;;;;;;5039228;28;20204;-79
2022/08/25 05:08:06;;;;;;;1070.82;980.33;;;24.10;96.20;;;;;;5045766;28;20209;-79
2022/08/25 05:10:33;;;;;;;1068.07;978.03;;;24.10;96.20;;;;;;5044615;28;20282;-81
2022/08/25 05:13:00;;;;;;;1078.65;987.88;;;24.00;96.20;;;;;;5051429;28;20650;-80
2022/08/25 05:18:12;;;;;;;1070.82;980.58;;;24.00;96.30;;;;;;5038104;28;20573;-80
2022/08/25 05:20:39;;;;;;;1070.32;979.90;;;24.00;96.30;;;;;;5037344;28;20216;-80
2022/08/25 05:23:06;;;;;;;1065.00;974.45;;;24.00;96.40;;;;;;5048454;28;20203;-80
2022/08/25 05:25:33;;;;;;;1073.32;982.88;;;24.00;96.40;;;;;;5038763;28;20685;-80
2022/08/25 05:27:59;;;;;;;1082.00;990.85;;;23.90;96.30;;;;;;5043211;28;20195;-80
2022/08/25 05:30:26;;;;;;;1070.57;980.10;;;24.00;96.40;;;;;;5046449;28;20196;-79
2022/08/25 05:32:53;;;;;;;1062.50;972.45;;;23.90;96.40;;;;;;5045332;28;20195;-80
2022/08/25 05:35:21;;;;;;;1065.63;975.20;;;23.90;96.40;;;;;;5044880;28;20203;-80
2022/08/25 05:37:48;;;;;;;1062.90;972.78;;;23.90;96.50;;;;;;5047859;28;20199;-79
2022/08/25 05:40:15;;;;;;;1063.15;973.20;;;23.90;96.50;;;;;;5045054;28;20199;-80
2022/08/25 05:42:41;;;;;;;1056.75;966.92;;;23.90;96.50;;;;;;5041440;28;20692;-80
2022/08/25 05:45:09;;;;;;;1057.20;967.38;;;23.90;96.60;;;;;;5039228;28;20195;-79
2022/08/25 05:47:36;;;;;;;1062.95;972.90;;;23.90;96.60;;;;;;5037725;28;20196;-80
2022/08/25 05:50:03;;;;;;;1058.70;968.85;;;23.90;96.60;;;;;;5042948;28;20207;-80
2022/08/25 05:52:31;;;;;;;1063.15;973.22;;;23.90;96.60;;;;;;5040311;28;20652;-80
2022/08/25 05:54:58;;;;;;;1062.47;972.47;;;23.90;96.60;;;;;;5045957;28;20670;-79
2022/08/25 05:57:25;;;;;;;1077.70;987.20;;;24.10;96.40;;;;;;5043574;28;20207;-79
2022/08/25 05:59:52;;;;;;;1062.37;972.40;;;24.30;96.20;;;;;;5047042;28;20198;-79
2022/08/25 06:05:02;;;;;;;1086.43;994.77;;;24.80;95.50;;;;;;5041651;28;20195;-79
2022/08/25 06:07:32;;;;;;;1098.17;999.90;;;25.00;95.00;;;;;;5035973;28;20465;-79
2022/08/25 06:09:58;;;;;;;1093.83;998.40;;;25.30;94.60;;;;;;5042738;28;20555;-79
2022/08/25 06:12:26;;;;;;;1100.77;999.90;;;25.50;94.20;;;;;;5045192;28;20465;-78
2022/08/25 06:14:52;;;;;;;1107.73;999.90;;;25.70;93.80;;;;;;5041613;28;20465;-78
2022/08/25 06:17:19;;;;;;;1121.80;999.90;;;25.80;93.40;;;;;;5041533;28;20464;-78
2022/08/25 06:19:46;;;;;;;1121.33;999.90;;;26.00;93.00;;;;;;5041452;28;20867;-78
2022/08/25 06:22:12;;;;;;;1114.23;999.90;;;26.20;92.70;;;;;;5042308;28;20841;-77
2022/08/25 06:24:40;;;;;;;1135.73;999.90;;;26.30;92.40;;;;;;5043551;28;20484;-77
2022/08/25 06:27:07;;;;;;;1138.13;999.90;;;26.40;92.10;;;;;;5040830;28;20475;-78
2022/08/25 06:29:34;;;;;;;1143.73;999.90;;;26.60;91.80;;;;;;5037008;28;20450;-79
2022/08/25 06:32:01;;;;;;;1152.70;999.90;;;26.60;91.60;;;;;;5039836;28;20449;-79
2022/08/25 06:34:27;;;;;;;1153.43;999.90;;;26.80;91.40;;;;;;5048164;28;20539;-79
2022/08/25 06:36:54;;;;;;;1149.23;999.90;;;26.90;91.20;;;;;;5043902;28;20456;-78
2022/08/25 06:39:22;;;;;;;1144.73;999.90;;;27.00;90.90;;;;;;5043309;28;20471;-79
2022/08/25 06:41:53;;;;;;;1164.03;999.90;;;27.10;90.70;;;;;;5040635;28;20513;-79
2022/08/25 06:44:19;;;;;;;1162.60;999.90;;;27.20;90.60;;;;;;5046917;28;20945;-78
2022/08/25 06:46:46;;;;;;;1154.57;999.90;;;27.30;90.40;;;;;;5043423;28;20891;-78
2022/08/25 06:49:13;;;;;;;1170.27;999.90;;;27.30;90.20;;;;;;5047128;28;20676;-79
2022/08/25 06:51:41;;;;;;;1159.17;999.90;;;27.40;90.10;;;;;;5045163;28;20932;-79
2022/08/25 06:54:08;;;;;;;1164.17;999.90;;;27.50;89.80;;;;;;5050173;28;20932;-78
2022/08/25 06:56:36;;;;;;;1171.97;999.90;;;27.60;89.60;;;;;;5042983;28;20461;-79
2022/08/25 06:59:06;;;;;;;1166.93;999.90;;;27.60;89.20;;;;;;5047484;28;20462;-79
2022/08/25 07:01:33;;;;;;;1181.73;999.90;;;27.70;89.00;;;;;;5044897;28;20496;-79
2022/08/25 07:04:03;;;;;;;1179.90;999.90;;;27.80;88.70;;;;;;5053902;28;20449;-80
2022/08/25 07:06:34;;;;;;;1181.80;999.90;;;27.90;88.40;;;;;;5047765;28;20469;-80
2022/08/25 07:09:01;;;;;;;1176.80;999.90;;;27.90;88.10;;;;;;5049264;28;20453;-79
2022/08/25 07:11:28;;;;;;;1173.60;999.90;;;28.00;87.80;;;;;;5049295;28;20460;-80
2022/08/25 07:13:55;;;;;;;1183.63;999.90;;;28.10;87.60;;;;;;5041051;28;20462;-80
2022/08/25 07:16:23;;;;;;;1189.40;999.90;;;28.20;87.50;;;;;;5045664;28;20457;-80
2022/08/25 07:18:50;;;;;;;1192.07;999.90;;;28.20;87.10;;;;;;5047420;28;20453;-80
2022/08/25 07:21:17;;;;;;;1203.57;999.90;;;28.30;86.90;;;;;;5043125;28;20864;-80
2022/08/25 07:23:44;;;;;;;1195.57;999.90;;;28.40;86.60;;;;;;5044654;28;20439;-79
2022/08/25 07:26:13;;;;;;;1196.93;999.90;;;28.40;86.40;;;;;;5046503;28;20453;-80
2022/08/25 07:28:41;;;;;;;1197.03;999.90;;;28.40;86.30;;;;;;5035369;28;20454;-80
2022/08/25 07:31:07;;;;;;;1197.97;999.90;;;28.50;86.20;;;;;;5045342;28;20507;-81
2022/08/25 07:33:35;;;;;;;1201.97;999.90;;;28.50;85.90;;;;;;5047660;28;20944;-81
2022/08/25 07:36:02;;;;;;;1198.60;999.90;;;28.60;85.80;;;;;;5051345;28;20440;-81
2022/08/25 07:38:29;;;;;;;1205.33;999.90;;;28.60;85.60;;;;;;5068762;28;20508;-81
2022/08/25 07:41:01;;;;;;;1204.77;999.90;;;28.70;85.50;;;;;;5060093;28;20540;-81
2022/08/25 07:43:28;;;;;;;1205.97;999.90;;;28.70;85.30;;;;;;5050618;28;20468;-80
2022/08/25 07:45:55;;;;;;;1204.03;999.90;;;28.80;85.20;;;;;;5049208;28;20784;-82
2022/08/25 07:48:22;;;;;;;1204.53;999.90;;;28.80;85.00;;;;;;5049250;28;20513;-82
2022/08/25 07:50:50;;;;;;;1204.97;999.90;;;28.80;84.80;;;;;;5051238;28;20476;-81
2022/08/25 07:53:17;;;;;;;1192.63;999.90;;;28.90;84.80;;;;;;5051061;28;20445;-81
2022/08/25 07:55:44;;;;;;;1211.47;999.90;;;28.90;84.80;;;;;;5056917;28;20464;-82
2022/08/25 07:58:11;;;;;;;1211.07;999.90;;;28.90;84.80;;;;;;5068314;28;20461;-81
2022/08/25 08:00:40;;;;;;;1200.47;999.90;;;28.90;84.70;;;;;;5059458;28;20455;-81
2022/08/25 08:03:08;;;;;;;1210.43;999.90;;;29.00;84.50;;;;;;5066344;28;20503;-82
2022/08/25 08:05:36;;;;;;;1209.10;999.90;;;29.00;84.40;;;;;;5042517;28;20462;-82
2022/08/25 08:08:05;;;;;;;1212.30;999.90;;;29.00;84.20;;;;;;5055432;28;20450;-84
2022/08/25 08:10:32;;;;;;;1206.20;999.90;;;29.10;84.10;;;;;;5047451;28;20847;-85
2022/08/25 08:12:59;;;;;;;1210.00;999.90;;;29.20;84.00;;;;;;5043447;28;21032;-82
2022/08/25 08:15:25;;;;;;;1210.33;999.90;;;29.20;84.00;;;;;;5033545;28;20488;-81
2022/08/25 08:17:52;;;;;;;1204.13;999.90;;;29.20;83.90;;;;;;5042710;28;20464;-83
2022/08/25 08:20:19;;;;;;;1209.63;999.90;;;29.20;83.90;;;;;;5032599;28;20807;-85
2022/08/25 08:22:46;;;;;;;1209.50;999.90;;;29.20;83.90;;;;;;5041696;28;20508;-82
2022/08/25 08:25:14;;;;;;;1211.13;999.90;;;29.20;83.80;;;;;;5053257;28;20458;-81
2022/08/25 08:27:41;;;;;;;1206.37;999.90;;;29.20;83.90;;;;;;5054174;28;20449;-81
2022/08/25 08:30:09;;;;;;;1204.90;999.90;;;29.30;83.80;;;;;;5056399;28;20462;-81
2022/08/25 08:32:36;;;;;;;1207.47;999.90;;;29.30;83.80;;;;;;5053070;28;20629;-81
2022/08/25 08:35:04;;;;;;;1215.23;999.90;;;29.30;83.80;;;;;;5050610;28;20598;-80
2022/08/25 08:37:31;;;;;;;1216.53;999.90;;;29.40;83.80;;;;;;5047895;28;20439;-81
2022/08/25 08:40:00;;;;;;;1216.87;999.90;;;29.40;83.70;;;;;;5061685;28;20460;-81
2022/08/25 08:42:48;;;;;;;1214.90;999.90;;;29.40;83.80;;;;;;5018704;28;1102558;-81
2022/08/25 08:45:32;;;;;;;1206.77;999.90;;;29.40;83.60;;;;;;5051446;28;21021;-81
2022/08/25 08:48:28;;;;;;;1216.37;999.90;;;29.40;83.70;;;;;;5044771;28;20463;-81
2022/08/25 08:51:06;;;;;;;1212.43;999.90;;;29.40;83.80;;;;;;5052550;28;20454;-81
2022/08/25 08:53:41;;;;;;;1209.07;999.90;;;29.40;84.80;;;;;;5050804;28;20439;-80
2022/08/25 08:56:11;;;;;;;1215.13;999.90;;;29.40;84.10;;;;;;5044957;28;20446;-81
2022/08/25 08:58:43;;;;;;;1218.23;999.90;;;29.30;84.10;;;;;;5047333;28;20449;-82
2022/08/25 09:01:12;;;;;;;1220.73;999.90;;;29.30;84.20;;;;;;5046530;28;20458;-81
2022/08/25 09:03:41;;;;;;;1208.50;999.90;;;29.30;84.30;;;;;;5055797;28;20857;-84
2022/08/25 09:06:11;;;;;;;1225.43;999.90;;;29.30;84.40;;;;;;5043059;28;20472;-83
2022/08/25 09:08:42;;;;;;;1221.80;999.90;;;29.30;84.40;;;;;;5045831;28;20465;-82
2022/08/25 09:11:18;;;;;;;1212.00;999.90;;;29.40;85.00;;;;;;5045487;28;20544;-80
2022/08/25 09:14:01;;;;;;;1218.33;999.90;;;29.30;84.70;;;;;;5048479;28;20510;-82
2022/08/25 09:16:56;;;;;;;1220.77;999.90;;;29.30;84.70;;;;;;5052233;28;20445;-81
2022/08/25 09:19:41;;;;;;;1208.30;999.90;;;29.30;84.90;;;;;;5040978;28;20482;-82
2022/08/25 09:22:18;;;;;;;1217.27;999.90;;;29.30;85.20;;;;;;5044290;28;20999;-82
2022/08/25 09:24:56;;;;;;;1216.70;999.90;;;29.30;85.40;;;;;;5054280;28;20452;-84
2022/08/25 09:27:35;;;;;;;1210.13;999.90;;;29.30;85.50;;;;;;5039325;28;20450;-82
2022/08/25 09:30:06;;;;;;;1209.23;999.90;;;29.20;85.50;;;;;;5054021;28;20985;-82
2022/08/25 09:32:37;;;;;;;1222.80;999.90;;;29.20;86.00;;;;;;5051721;28;20437;-83
2022/08/25 09:35:06;;;;;;;1213.23;999.90;;;29.20;85.80;;;;;;5044515;28;20509;-84
2022/08/25 09:37:33;;;;;;;1205.37;999.90;;;29.10;85.90;;;;;;5048800;28;20466;-83
2022/08/25 09:39:59;;;;;;;1205.07;999.90;;;29.10;85.90;;;;;;5057512;28;20806;-83
2022/08/25 09:42:49;;;;;;;1218.77;999.90;;;29.10;85.90;;;;;;5054867;28;20561;-83
2022/08/25 09:45:32;;;;;;;1205.13;999.90;;;29.10;86.10;;;;;;5044382;28;20461;-83
2022/08/25 09:47:59;;;;;;;1211.73;999.90;;;29.10;86.20;;;;;;5045810;28;20801;-84
2022/08/25 09:50:32;;;;;;;1190.27;999.90;;;29.10;85.80;;;;;;5049324;28;20445;-82
2022/08/25 09:53:12;;;;;;;1206.53;999.90;;;29.00;85.80;;;;;;5054642;28;21010;-83
2022/08/25 09:55:41;;;;;;;1211.13;999.90;;;29.00;85.60;;;;;;5040892;28;20446;-83
2022/08/25 09:58:17;;;;;;;1204.63;999.90;;;29.00;85.90;;;;;;5041982;28;20458;-81
2022/08/25 10:01:05;;;;;;;1196.87;999.90;;;29.00;86.00;;;;;;5041140;28;20957;-83
2022/08/25 10:03:32;;;;;;;1210.33;999.90;;;28.90;85.90;;;;;;5050715;28;20572;-82
2022/08/25 10:06:04;;;;;;;1206.07;999.90;;;28.90;86.20;;;;;;5056766;28;20477;-85
2022/08/25 10:08:35;;;;;;;1199.90;999.90;;;28.90;85.70;;;;;;5048136;28;20513;-84
2022/08/25 10:11:04;;;;;;;1196.67;999.90;;;28.90;86.90;;;;;;5052098;28;21169;-83
2022/08/25 10:13:38;;;;;;;1200.30;999.90;;;28.90;85.80;;;;;;5042605;28;20450;-83
2022/08/25 10:16:10;;;;;;;1194.57;999.90;;;28.90;86.30;;;;;;5048063;28;20503;-83
2022/08/25 10:18:37;;;;;;;1190.13;999.90;;;28.90;86.50;;;;;;5050179;28;20885;-82
2022/08/25 10:21:10;;;;;;;1200.27;999.90;;;28.90;86.50;;;;;;5048857;28;20467;-84
2022/08/25 10:23:43;;;;;;;1200.43;999.90;;;28.80;86.10;;;;;;5047778;28;20477;-83
2022/08/25 10:26:15;;;;;;;1195.43;999.90;;;28.80;86.30;;;;;;5047876;28;20607;-87
2022/08/25 10:28:52;;;;;;;1189.07;999.90;;;28.80;86.00;;;;;;5047372;28;20465;-84
2022/08/25 10:31:30;;;;;;;1191.17;999.90;;;28.80;85.60;;;;;;5052265;28;20453;-84
2022/08/25 10:34:07;;;;;;;1198.03;999.90;;;28.80;85.80;;;;;;5059130;28;20445;-82
2022/08/25 10:36:45;;;;;;;1194.13;999.90;;;28.80;85.90;;;;;;5040096;28;20469;-83
2022/08/25 10:39:24;;;;;;;1190.43;999.90;;;28.80;85.60;;;;;;5042005;28;20462;-84
2022/08/25 10:42:01;;;;;;;1190.47;999.90;;;28.80;85.80;;;;;;5060506;28;20468;-84
2022/08/25 10:47:42;;;;;;;1186.37;999.90;;;28.80;85.60;;;;;;5041268;28;20453;-82
2022/08/25 10:50:18;;;;;;;1197.67;999.90;;;28.80;85.80;;;;;;5046892;28;20473;-82
2022/08/25 10:53:14;;;;;;;1200.73;999.90;;;28.70;85.40;;;;;;5052086;28;20491;-83
2022/08/25 10:55:52;;;;;;;1202.27;999.90;;;28.70;85.40;;;;;;5054735;28;20450;-85
2022/08/25 10:58:25;;;;;;;1183.80;999.90;;;28.70;85.30;;;;;;5050215;28;20452;-81
2022/08/25 11:01:01;;;;;;;1190.47;999.90;;;28.70;85.50;;;;;;5055516;28;20460;-85
2022/08/25 11:03:44;;;;;;;1187.93;999.90;;;28.70;84.90;;;;;;5061758;28;21080;-83
2022/08/25 11:06:17;;;;;;;1200.07;999.90;;;28.70;85.10;;;;;;5042714;28;20456;-84
2022/08/25 11:08:50;;;;;;;1195.33;999.90;;;28.70;85.40;;;;;;5042476;28;20462;-86
2022/08/25 11:11:24;;;;;;;1194.60;999.90;;;28.70;85.50;;;;;;5046381;28;20453;-84
2022/08/25 11:13:55;;;;;;;1177.63;999.90;;;28.70;84.60;;;;;;5049518;28;20461;-84
2022/08/25 11:16:34;;;;;;;1187.40;999.90;;;28.70;84.20;;;;;;5056124;28;20450;-85
2022/08/25 11:19:08;;;;;;;1186.10;999.90;;;28.70;84.30;;;;;;5048984;28;20475;-83
2022/08/25 11:21:44;;;;;;;1199.43;999.90;;;28.60;84.20;;;;;;5050356;28;21022;-84
2022/08/25 11:24:30;;;;;;;1188.97;999.90;;;28.60;84.50;;;;;;5041260;28;20960;-82
2022/08/25 11:26:57;;;;;;;1195.37;999.90;;;28.70;83.50;;;;;;5044025;28;20480;-84
2022/08/25 11:29:29;;;;;;;1179.97;999.90;;;28.60;84.20;;;;;;5043511;28;20454;-83
2022/08/25 11:31:59;;;;;;;1190.57;999.90;;;28.60;84.60;;;;;;5045428;28;20454;-84
2022/08/25 11:34:31;;;;;;;1184.80;999.90;;;28.60;84.50;;;;;;5059025;28;20457;-85
2022/08/25 11:37:06;;;;;;;1189.93;999.90;;;28.60;84.70;;;;;;5042804;28;20954;-85
2022/08/25 11:39:48;;;;;;;1195.47;999.90;;;28.60;84.60;;;;;;5046121;28;20545;-84
2022/08/25 11:42:25;;;;;;;1178.50;999.90;;;28.60;84.40;;;;;;5061507;28;20480;-82
2022/08/25 11:45:02;;;;;;;1194.37;999.90;;;28.60;84.60;;;;;;5061629;28;20454;-85
2022/08/25 11:47:41;;;;;;;1184.27;999.90;;;28.60;84.50;;;;;;5050594;28;20460;-85
2022/08/25 11:50:25;;;;;;;1180.47;999.90;;;28.60;84.50;;;;;;5051245;28;20464;-82
2022/08/25 11:52:55;;;;;;;1189.93;999.90;;;28.60;84.80;;;;;;5059549;28;20445;-84
2022/08/25 11:55:28;;;;;;;1184.97;999.90;;;28.60;84.80;;;;;;5057630;28;20624;-84
2022/08/25 11:58:40;;;;;;;1191.17;999.90;;;28.60;84.60;;;;;;5061900;28;20431;-81
2022/08/25 12:01:10;;;;;;;1178.83;999.90;;;28.60;84.90;;;;;;5021470;28;20465;-84
2022/08/25 12:04:12;;;;;;;1192.60;999.90;;;28.60;85.20;;;;;;5044319;28;20474;-81
2022/08/25 12:07:16;;;;;;;1179.87;999.90;;;28.60;85.20;;;;;;5046031;28;20461;-84
2022/08/25 12:10:13;;;;;;;1176.50;999.90;;;28.60;84.80;;;;;;5050444;28;20457;-84
2022/08/25 12:12:57;;;;;;;1171.60;999.90;;;28.60;85.20;;;;;;5043258;28;20443;-84
2022/08/25 12:15:25;;;;;;;1178.90;999.90;;;28.60;85.40;;;;;;5049416;28;20537;-86
2022/08/25 12:18:09;;;;;;;1182.77;999.90;;;28.60;85.40;;;;;;5055249;28;20454;-84
2022/08/25 12:21:22;;;;;;;1195.27;999.90;;;28.60;85.30;;;;;;5060858;28;20918;-83
2022/08/25 12:24:09;;;;;;;1182.10;999.90;;;28.60;85.30;;;;;;5015267;28;21082;-84